createdAt,value
2023-05-13T00:00:00.577Z,5
2023-05-13T00:04:00.558Z,6
2023-05-13T00:08:00.565Z,5
2023-05-13T00:12:00.554Z,5
2023-05-13T00:16:00.621Z,6
2023-05-13T00:20:00.548Z,6
2023-05-13T00:24:00.575Z,6
2023-05-13T00:28:00.564Z,6
2023-05-13T00:32:00.641Z,5
2023-05-13T00:36:00.595Z,6
2023-05-13T00:40:00.654Z,6
2023-05-13T00:44:00.531Z,6
2023-05-13T00:48:00.621Z,6
2023-05-13T00:52:00.561Z,5
2023-05-13T00:56:00.562Z,6
2023-05-13T01:00:00.536Z,6
2023-05-13T01:04:00.586Z,6
2023-05-13T01:08:00.564Z,6
2023-05-13T01:12:00.549Z,7
2023-05-13T01:16:00.560Z,6
2023-05-13T01:20:00.579Z,6
2023-05-13T01:24:00.581Z,6
2023-05-13T01:28:00.560Z,6
2023-05-13T01:32:00.566Z,6
2023-05-13T01:36:00.564Z,7
2023-05-13T01:40:00.573Z,6
2023-05-13T01:44:00.559Z,7
2023-05-13T01:48:00.619Z,7
2023-05-13T01:52:00.542Z,7
2023-05-13T01:56:00.556Z,6
2023-05-13T02:00:00.547Z,7
2023-05-13T02:04:00.580Z,6
2023-05-13T02:08:00.558Z,6
2023-05-13T02:12:00.568Z,6
2023-05-13T02:16:00.599Z,7
2023-05-13T02:20:00.572Z,6
2023-05-13T02:24:00.577Z,7
2023-05-13T02:28:00.575Z,7
2023-05-13T02:32:01.685Z,7
2023-05-13T02:36:00.546Z,7
2023-05-13T02:40:00.631Z,7
2023-05-13T02:44:00.558Z,6
2023-05-13T02:48:00.594Z,7
2023-05-13T02:52:00.566Z,7
2023-05-13T02:56:00.555Z,9
2023-05-13T03:00:00.568Z,9
2023-05-13T03:04:00.541Z,7
2023-05-13T03:08:00.587Z,7
2023-05-13T03:12:00.556Z,9
2023-05-13T03:16:00.642Z,9
2023-05-13T03:20:00.551Z,7
2023-05-13T03:24:00.550Z,7
2023-05-13T03:28:00.567Z,8
2023-05-13T03:32:00.538Z,7
2023-05-13T03:36:00.569Z,9
2023-05-13T03:40:00.535Z,7
2023-05-13T03:44:00.549Z,9
2023-05-13T03:48:00.605Z,10
2023-05-13T03:52:00.551Z,9
2023-05-13T03:56:00.568Z,9
2023-05-13T04:00:00.565Z,9
2023-05-13T04:04:00.561Z,9
2023-05-13T04:08:00.581Z,8
2023-05-13T04:12:00.561Z,9
2023-05-13T04:16:00.542Z,7
2023-05-13T04:20:00.570Z,9
2023-05-13T04:24:00.540Z,9
2023-05-13T04:28:00.563Z,9
2023-05-13T04:32:00.651Z,9
2023-05-13T04:36:00.572Z,8
2023-05-13T04:40:00.540Z,7
2023-05-13T04:44:00.553Z,9
2023-05-13T04:48:00.579Z,7
2023-05-13T04:52:00.555Z,7
2023-05-13T04:56:00.603Z,7
2023-05-13T05:00:00.565Z,9
2023-05-13T05:04:00.595Z,7
2023-05-13T05:08:00.561Z,7
2023-05-13T05:12:00.541Z,7
2023-05-13T05:16:00.567Z,7
2023-05-13T05:20:00.543Z,7
2023-05-13T05:24:00.573Z,7
2023-05-13T05:28:00.546Z,7
2023-05-13T05:32:00.635Z,7
2023-05-13T05:36:00.594Z,7
2023-05-13T05:40:00.568Z,6
2023-05-13T05:44:00.571Z,6
2023-05-13T05:48:00.638Z,7
2023-05-13T05:52:00.556Z,6
2023-05-13T05:56:00.569Z,6
2023-05-13T06:00:00.567Z,6
2023-05-13T06:04:00.893Z,6
2023-05-13T06:08:00.557Z,6
2023-05-13T06:12:00.566Z,6
2023-05-13T06:16:00.607Z,6
2023-05-13T06:20:00.559Z,6
2023-05-13T06:24:00.559Z,6
2023-05-13T06:28:02.912Z,6
2023-05-13T06:32:00.568Z,6
2023-05-13T06:36:00.563Z,5
2023-05-13T06:40:00.569Z,6
2023-05-13T06:44:00.567Z,6
2023-05-13T06:48:00.667Z,6
2023-05-13T06:52:00.562Z,6
2023-05-13T06:56:00.565Z,6
2023-05-13T07:00:00.567Z,5
2023-05-13T07:04:00.752Z,5
2023-05-13T07:08:00.586Z,5
2023-05-13T07:12:00.589Z,6
2023-05-13T07:16:00.597Z,4
2023-05-13T07:20:00.596Z,4
2023-05-13T07:24:00.578Z,5
2023-05-13T07:28:00.609Z,4
2023-05-13T07:32:00.587Z,4
2023-05-13T07:36:00.592Z,4
2023-05-13T07:40:00.604Z,5
2023-05-13T07:44:00.598Z,4
2023-05-13T07:48:00.680Z,4
2023-05-13T07:52:00.591Z,5
2023-05-13T07:56:00.605Z,5
2023-05-13T08:00:00.645Z,4
2023-05-13T08:04:00.824Z,5
2023-05-13T08:08:00.561Z,4
2023-05-13T08:12:00.583Z,4
2023-05-13T08:16:00.598Z,5
2023-05-13T08:20:00.573Z,4
2023-05-13T08:24:00.569Z,5
2023-05-13T08:28:00.547Z,4
2023-05-13T08:32:00.656Z,4
2023-05-13T08:36:00.560Z,5
2023-05-13T08:40:00.571Z,4
2023-05-13T08:44:00.580Z,5
2023-05-13T08:48:00.593Z,4
2023-05-13T08:52:00.571Z,5
2023-05-13T08:56:00.557Z,6
2023-05-13T09:00:00.609Z,4
2023-05-13T09:04:00.579Z,4
2023-05-13T09:08:00.551Z,4
2023-05-13T09:12:00.573Z,3
2023-05-13T09:16:00.659Z,3
2023-05-13T09:20:00.827Z,4
2023-05-13T09:24:00.565Z,4
2023-05-13T09:28:00.570Z,3
2023-05-13T09:32:00.594Z,4
2023-05-13T09:36:00.571Z,3
2023-05-13T09:40:00.564Z,4
2023-05-13T09:44:00.571Z,3
2023-05-13T09:48:00.648Z,4
2023-05-13T09:52:00.550Z,3
2023-05-13T09:56:00.583Z,3
2023-05-13T10:00:00.572Z,3
2023-05-13T10:04:00.594Z,3
2023-05-13T10:08:00.582Z,3
2023-05-13T10:12:00.559Z,3
2023-05-13T10:16:00.620Z,3
2023-05-13T10:20:00.554Z,3
2023-05-13T10:24:00.576Z,3
2023-05-13T10:28:00.559Z,3
2023-05-13T10:32:00.657Z,3
2023-05-13T10:36:00.634Z,3
2023-05-13T10:40:00.546Z,3
2023-05-13T10:44:00.559Z,2
2023-05-13T10:48:00.697Z,3
2023-05-13T10:52:00.576Z,3
2023-05-13T10:56:00.561Z,3
2023-05-13T11:00:00.565Z,3
2023-05-13T11:04:00.759Z,3
2023-05-13T11:08:00.557Z,3
2023-05-13T11:12:00.576Z,4
2023-05-13T11:16:00.595Z,3
2023-05-13T11:20:00.582Z,3
2023-05-13T11:24:00.555Z,3
2023-05-13T11:28:00.553Z,3
2023-05-13T11:32:01.217Z,2
2023-05-13T11:36:00.536Z,3
2023-05-13T11:40:00.558Z,3
2023-05-13T11:44:00.579Z,3
2023-05-13T11:48:00.575Z,4
2023-05-13T11:52:00.558Z,3
2023-05-13T11:56:00.551Z,3
2023-05-13T12:00:00.551Z,3
2023-05-13T12:04:00.545Z,3
2023-05-13T12:08:00.596Z,3
2023-05-13T12:12:00.586Z,4
2023-05-13T12:16:00.635Z,3
2023-05-13T12:20:00.582Z,3
2023-05-13T12:24:00.554Z,3
2023-05-13T12:28:00.558Z,3
2023-05-13T12:32:00.582Z,3
2023-05-13T12:36:00.564Z,3
2023-05-13T12:40:00.538Z,3
2023-05-13T12:44:00.569Z,3
2023-05-13T12:48:00.602Z,3
2023-05-13T12:52:00.572Z,2
2023-05-13T12:56:00.537Z,4
2023-05-13T13:00:00.575Z,3
2023-05-13T13:04:00.817Z,3
2023-05-13T13:08:00.555Z,4
2023-05-13T13:12:00.558Z,3
2023-05-13T13:16:00.618Z,3
2023-05-13T13:20:00.560Z,4
2023-05-13T13:24:00.568Z,3
2023-05-13T13:28:00.544Z,3
2023-05-13T13:32:00.585Z,3
2023-05-13T13:36:00.542Z,3
2023-05-13T13:40:00.644Z,3
2023-05-13T13:44:00.567Z,3
2023-05-13T13:48:00.603Z,4
2023-05-13T13:52:00.542Z,4
2023-05-13T13:56:00.541Z,3
2023-05-13T14:00:00.603Z,3
2023-05-13T14:04:00.602Z,3
2023-05-13T14:08:00.573Z,3
2023-05-13T14:12:00.898Z,3
2023-05-13T14:16:00.663Z,3
2023-05-13T14:20:00.562Z,3
2023-05-13T14:24:00.620Z,3
2023-05-13T14:28:00.568Z,3
2023-05-13T14:32:00.664Z,3
2023-05-13T14:36:00.553Z,4
2023-05-13T14:40:00.568Z,3
2023-05-13T14:44:00.569Z,3
2023-05-13T14:48:00.603Z,3
2023-05-13T14:52:00.558Z,4
2023-05-13T14:56:00.565Z,3
2023-05-13T15:00:00.548Z,4
2023-05-13T15:04:00.554Z,3
2023-05-13T15:08:00.564Z,4
2023-05-13T15:12:00.818Z,3
2023-05-13T15:16:00.532Z,3
2023-05-13T15:20:00.567Z,3
2023-05-13T15:24:00.551Z,4
2023-05-13T15:28:00.553Z,3
2023-05-13T15:32:00.543Z,5
2023-05-13T15:36:00.577Z,5
2023-05-13T15:40:00.629Z,5
2023-05-13T15:44:00.574Z,5
2023-05-13T15:48:00.616Z,5
2023-05-13T15:52:00.601Z,5
2023-05-13T15:56:00.581Z,5
2023-05-13T16:00:00.702Z,4
2023-05-13T16:04:00.594Z,5
2023-05-13T16:08:00.558Z,5
2023-05-13T16:12:00.553Z,6
2023-05-13T16:16:00.622Z,6
2023-05-13T16:20:00.540Z,6
2023-05-13T16:24:00.545Z,4
2023-05-13T16:28:00.547Z,4
2023-05-13T16:32:00.605Z,6
2023-05-13T16:36:00.552Z,6
2023-05-13T16:40:00.558Z,4
2023-05-13T16:44:00.551Z,6
2023-05-13T16:48:00.746Z,4
2023-05-13T16:52:00.528Z,6
2023-05-13T16:56:00.567Z,4
2023-05-13T17:00:00.617Z,4
2023-05-13T17:04:00.556Z,4
2023-05-13T17:08:00.576Z,5
2023-05-13T17:12:00.562Z,4
2023-05-13T17:16:00.571Z,5
2023-05-13T17:20:00.563Z,4
2023-05-13T17:24:00.591Z,4
2023-05-13T17:28:00.543Z,5
2023-05-13T17:32:00.591Z,6
2023-05-13T17:36:00.542Z,9
2023-05-13T17:40:00.620Z,5
2023-05-13T17:44:00.561Z,5
2023-05-13T17:48:00.621Z,6
2023-05-13T17:52:00.538Z,5
2023-05-13T17:56:00.555Z,5
2023-05-13T18:00:00.580Z,5
2023-05-13T18:04:00.558Z,5
2023-05-13T18:08:00.545Z,5
2023-05-13T18:12:00.565Z,6
2023-05-13T18:16:00.587Z,4
2023-05-13T18:20:00.564Z,5
2023-05-13T18:24:00.561Z,5
2023-05-13T18:28:00.556Z,6
2023-05-13T18:32:00.596Z,5
2023-05-13T18:36:00.559Z,7
2023-05-13T18:40:00.555Z,6
2023-05-13T18:44:00.573Z,5
2023-05-13T18:48:00.722Z,5
2023-05-13T18:52:00.566Z,5
2023-05-13T18:56:00.540Z,5
2023-05-13T19:00:00.575Z,5
2023-05-13T19:04:00.693Z,6
2023-05-13T19:08:00.691Z,5
2023-05-13T19:12:00.542Z,6
2023-05-13T19:16:00.562Z,6
2023-05-13T19:20:00.628Z,8
2023-05-13T19:24:00.604Z,6
2023-05-13T19:28:00.554Z,8
2023-05-13T19:32:00.546Z,9
2023-05-13T19:36:00.563Z,6
2023-05-13T19:40:00.565Z,7
2023-05-13T19:44:00.593Z,9
2023-05-13T19:48:00.652Z,7
2023-05-13T19:52:00.545Z,7
2023-05-13T19:56:00.569Z,9
2023-05-13T20:00:00.535Z,10
2023-05-13T20:04:00.668Z,13
2023-05-13T20:08:00.556Z,13
2023-05-13T20:12:00.542Z,12
2023-05-13T20:16:00.567Z,13
2023-05-13T20:20:00.551Z,13
2023-05-13T20:24:00.587Z,13
2023-05-13T20:28:01.595Z,13
2023-05-13T20:32:00.656Z,13
2023-05-13T20:36:00.553Z,13
2023-05-13T20:40:00.573Z,13
2023-05-13T20:44:01.549Z,11
2023-05-13T20:48:00.562Z,12
2023-05-13T20:52:00.637Z,13
2023-05-13T20:56:00.566Z,114
2023-05-13T21:00:00.579Z,192
2023-05-13T21:04:00.604Z,128
2023-05-13T21:08:00.560Z,69
2023-05-13T21:12:00.566Z,66
2023-05-13T21:16:00.589Z,60
2023-05-13T21:20:00.576Z,45
2023-05-13T21:24:00.553Z,36
2023-05-13T21:28:00.550Z,48
2023-05-13T21:32:00.584Z,45
2023-05-13T21:36:00.595Z,28
2023-05-13T21:40:00.620Z,23
2023-05-13T21:44:00.624Z,22
2023-05-13T21:48:00.661Z,29
2023-05-13T21:52:00.568Z,37
2023-05-13T21:56:00.570Z,35
2023-05-13T22:00:00.570Z,29
2023-05-13T22:04:00.539Z,26
2023-05-13T22:08:00.565Z,28
2023-05-13T22:12:00.577Z,24
2023-05-13T22:16:00.581Z,20
2023-05-13T22:20:00.588Z,20
2023-05-13T22:24:00.536Z,19
2023-05-13T22:28:00.560Z,19
2023-05-13T22:32:00.591Z,17
2023-05-13T22:36:00.540Z,15
2023-05-13T22:40:00.556Z,13
2023-05-13T22:44:00.575Z,12
2023-05-13T22:48:00.615Z,13
2023-05-13T22:52:00.555Z,12
2023-05-13T22:56:00.571Z,12
2023-05-13T23:00:00.603Z,14
2023-05-13T23:04:00.663Z,13
2023-05-13T23:08:00.550Z,14
2023-05-13T23:12:00.567Z,13
2023-05-13T23:16:00.629Z,14
2023-05-13T23:20:00.581Z,13
2023-05-13T23:24:00.584Z,13
2023-05-13T23:28:00.559Z,13
2023-05-13T23:32:00.636Z,14
2023-05-13T23:36:00.544Z,13
2023-05-13T23:40:00.560Z,13
2023-05-13T23:44:00.545Z,13
2023-05-13T23:48:00.678Z,13
2023-05-13T23:52:00.551Z,14
2023-05-13T23:56:00.557Z,13
